Time;durP1;ratioP1;P1;durP2;ratioP2;P2;SDS_P1;SDS_P2;PMS_P1;PMS_P2;Temp;Humidity;BMP_temperature;BMP_pressure;BME280_temperature;BME280_humidity;BME280_pressure;Samples;Min_cycle;Max_cycle;Signal;HPM_P1;HPM_P2
2021/12/19 00:01:03;;;;;;;0.20;0.20;;;;;;;9.55;68.25;103845.41;5031677;28;20112;-83
2021/12/19 00:09:00;;;;;;;0.17;0.17;;;;;;;9.47;68.07;103831.03;5050398;28;20043;-82
2021/12/19 00:11:29;;;;;;;0.15;0.15;;;;;;;9.48;68.11;103830.19;5049643;28;20427;-83
2021/12/19 00:13:57;;;;;;;0.20;0.20;;;;;;;9.49;68.37;103813.44;5048597;28;20041;-82
2021/12/19 00:16:23;;;;;;;0.13;0.13;;;;;;;9.47;67.94;103817.78;5045137;28;20060;-82
2021/12/19 00:18:52;;;;;;;0.10;0.10;;;;;;;9.50;68.20;103807.31;5050315;28;20087;-83
2021/12/19 00:21:20;;;;;;;0.10;0.10;;;;;;;9.51;68.38;103809.13;5047697;28;20511;-82
2021/12/19 00:23:48;;;;;;;0.10;0.10;;;;;;;9.53;68.21;103799.47;5049489;28;20029;-82
2021/12/19 00:26:16;;;;;;;0.20;0.20;;;;;;;9.50;68.46;103807.31;5050073;28;20049;-84
2021/12/19 00:28:43;;;;;;;0.20;0.20;;;;;;;9.47;68.28;103804.56;5048672;28;20033;-83
2021/12/19 00:31:11;;;;;;;0.10;0.10;;;;;;;9.43;68.39;103794.72;5049578;28;20029;-82
2021/12/19 00:33:37;;;;;;;0.17;0.17;;;;;;;9.36;68.51;103805.13;5049494;28;20078;-83
2021/12/19 00:36:05;;;;;;;2.55;2.35;;;;;;;9.37;68.33;103804.28;5048178;28;20488;-83
2021/12/19 00:38:31;;;;;;;5.82;0.85;;;;;;;9.33;68.58;103802.38;5050171;28;20025;-82
2021/12/19 00:40:59;;;;;;;0.20;0.20;;;;;;;9.30;68.78;103799.63;5050187;28;20053;-82
2021/12/19 00:44:07;;;;;;;0.10;0.10;;;;;;;9.31;68.76;103792.56;5049486;28;20032;-83
2021/12/19 00:46:14;;;;;;;1.58;1.50;;;;;;;9.29;68.24;103794.28;5044773;28;20041;-83
2021/12/19 00:48:43;;;;;;;0.20;0.20;;;;;;;9.31;68.68;103800.50;5050287;28;20399;-83
2021/12/19 00:51:14;;;;;;;0.10;0.10;;;;;;;9.33;68.78;103788.22;5048507;28;20495;-83
2021/12/19 00:53:40;;;;;;;0.20;0.20;;;;;;;9.32;68.37;103783.78;5048974;28;20483;-83
2021/12/19 00:56:07;;;;;;;0.30;0.30;;;;;;;9.22;68.69;103788.78;5050151;28;20063;-83
2021/12/19 00:58:33;;;;;;;0.10;0.10;;;;;;;9.30;68.54;103785.50;5049488;28;20021;-82
2021/12/19 01:01:01;;;;;;;0.10;0.10;;;;;;;9.29;68.39;103768.72;5050545;28;20025;-81
2021/12/19 01:03:28;;;;;;;0.20;0.20;;;;;;;9.26;68.55;103783.59;5046003;28;20103;-82
2021/12/19 01:05:54;;;;;;;0.10;0.10;;;;;;;9.27;68.60;103783.66;5036788;28;20037;-82
2021/12/19 01:08:20;;;;;;;0.10;0.10;;;;;;;9.26;68.60;103779.22;5037669;28;20065;-81
2021/12/19 01:10:48;;;;;;;0.10;0.10;;;;;;;9.28;68.50;103764.25;5047816;28;20025;-82
2021/12/19 01:13:16;;;;;;;0.10;0.10;;;;;;;9.32;68.72;103770.56;5042987;28;20053;-81
2021/12/19 01:15:42;;;;;;;0.10;0.10;;;;;;;9.34;68.46;103771.50;5046487;28;20060;-82
2021/12/19 01:18:09;;;;;;;0.10;0.10;;;;;;;9.32;68.60;103768.81;5034001;28;20025;-81
2021/12/19 01:20:39;;;;;;;0.10;0.10;;;;;;;9.35;68.53;103765.38;5036409;28;20388;-81
2021/12/19 01:23:06;;;;;;;0.10;0.10;;;;;;;9.36;68.77;103764.53;5035771;28;20018;-82
2021/12/19 01:25:33;;;;;;;0.20;0.20;;;;;;;9.39;68.53;103760.25;5035291;28;20136;-82
2021/12/19 01:27:59;;;;;;;0.10;0.10;;;;;;;9.39;68.57;103765.53;5036630;28;20041;-82
2021/12/19 01:30:26;;;;;;;0.10;0.10;;;;;;;9.41;68.63;103762.94;5036262;28;20074;-82
2021/12/19 01:32:52;;;;;;;0.10;0.10;;;;;;;9.41;68.81;103759.38;5026531;28;20116;-83
2021/12/19 01:35:21;;;;;;;0.10;0.10;;;;;;;9.42;68.69;103758.53;5026308;28;20052;-83
2021/12/19 01:37:47;;;;;;;0.88;0.57;;;;;;;9.44;68.94;103748.91;5022549;28;20026;-83
2021/12/19 01:40:17;;;;;;;0.10;0.10;;;;;;;9.39;69.09;103744.38;5031262;28;20507;-81
2021/12/19 01:42:45;;;;;;;0.17;0.17;;;;;;;9.32;69.16;103747.66;5028733;28;20075;-83
2021/12/19 01:45:15;;;;;;;0.10;0.10;;;;;;;9.35;68.63;103746.84;5025281;28;20046;-82
2021/12/19 01:47:41;;;;;;;0.10;0.10;;;;;;;9.34;69.18;103751.22;5025760;28;20495;-82
2021/12/19 01:50:09;;;;;;;0.20;0.20;;;;;;;9.41;68.98;103746.13;5037389;28;20108;-82
2021/12/19 01:52:35;;;;;;;0.55;0.55;;;;;;;9.45;68.95;103748.06;5028646;28;20034;-83
2021/12/19 01:55:02;;;;;;;0.13;0.13;;;;;;;9.45;69.22;103750.69;5027824;28;20044;-83
2021/12/19 01:57:28;;;;;;;0.10;0.10;;;;;;;9.50;69.15;103746.44;5035926;28;20472;-83
2021/12/19 01:59:55;;;;;;;0.65;0.65;;;;;;;9.51;68.88;103742.94;5035907;28;20047;-83
2021/12/19 02:02:22;;;;;;;0.10;0.10;;;;;;;9.48;69.27;103737.53;5027893;28;20105;-83
2021/12/19 02:04:49;;;;;;;0.13;0.13;;;;;;;9.53;69.11;103742.16;5026986;28;20140;-84
2021/12/19 02:07:16;;;;;;;0.40;0.40;;;;;;;9.57;69.06;103742.22;5031943;28;20021;-83
2021/12/19 02:09:42;;;;;;;0.13;0.13;;;;;;;9.54;69.18;103736.00;5034598;28;20056;-83
2021/12/19 02:12:09;;;;;;;0.10;0.10;;;;;;;9.63;69.33;103738.03;5035128;28;20029;-83
2021/12/19 02:14:36;;;;;;;0.10;0.10;;;;;;;9.66;69.42;103731.94;5030274;28;20024;-82
2021/12/19 02:17:03;;;;;;;0.10;0.10;;;;;;;9.67;69.29;103734.63;5033716;28;20029;-82
2021/12/19 02:19:31;;;;;;;0.20;0.20;;;;;;;9.71;69.38;103727.66;5034049;28;20388;-82
2021/12/19 02:21:59;;;;;;;0.10;0.10;;;;;;;9.71;69.40;103722.38;5035235;28;20024;-82
2021/12/19 02:24:26;;;;;;;0.85;0.85;;;;;;;9.71;69.41;103727.66;5035424;28;20033;-82
2021/12/19 02:26:52;;;;;;;0.13;0.13;;;;;;;9.74;69.05;103726.88;5033813;28;20029;-83
2021/12/19 02:29:18;;;;;;;0.10;0.10;;;;;;;9.79;69.40;103727.91;5034184;28;20030;-83
2021/12/19 02:31:45;;;;;;;0.20;0.20;;;;;;;9.78;69.02;103721.72;5035238;28;20497;-83
2021/12/19 02:34:19;;;;;;;0.20;0.20;;;;;;;9.82;69.37;103717.38;5035010;28;20036;-84
2021/12/19 02:48:20;;;;;;;0.10;0.10;;;;;;;9.83;69.64;103698.00;5054037;28;20045;-82
2021/12/19 02:50:52;;;;;;;0.10;0.10;;;;;;;9.82;69.75;103702.41;5055184;28;20357;-83
2021/12/19 02:53:28;;;;;;;0.10;0.10;;;;;;;9.90;69.57;103689.38;5054893;28;20033;-82
2021/12/19 02:55:54;;;;;;;0.10;0.10;;;;;;;9.81;69.57;103689.13;5056072;28;20495;-82
2021/12/19 02:58:22;;;;;;;0.10;0.10;;;;;;;9.79;69.80;103680.22;5056126;28;20053;-83
2021/12/19 03:00:49;;;;;;;0.13;0.13;;;;;;;9.85;69.37;103680.41;5059052;28;20483;-83
2021/12/19 03:03:15;;;;;;;0.10;0.10;;;;;;;9.86;69.51;103682.22;5056226;28;20155;-83
2021/12/19 03:05:41;;;;;;;0.17;0.17;;;;;;;9.84;69.90;103675.97;5061960;28;20431;-82
2021/12/19 03:08:09;;;;;;;0.17;0.17;;;;;;;9.82;69.88;103675.00;5058535;28;20100;-82
2021/12/19 03:17:57;;;;;;;0.10;0.10;;;;;;;9.77;69.72;103660.75;5054950;28;20033;-83
2021/12/19 03:18:54;;;;;;;0.43;0.43;;;;;;;9.72;70.10;103657.97;5051478;28;20511;-82
2021/12/19 03:21:24;;;;;;;0.10;0.10;;;;;;;9.78;70.00;103649.31;5052578;28;20033;-82
2021/12/19 03:23:50;;;;;;;0.13;0.13;;;;;;;9.81;70.06;103649.41;5056319;28;20018;-82
2021/12/19 03:26:17;;;;;;;0.20;0.20;;;;;;;9.81;70.10;103637.06;5052598;28;20571;-82
2021/12/19 03:28:43;;;;;;;0.10;0.10;;;;;;;9.83;69.89;103634.44;5052229;28;20026;-82
2021/12/19 03:31:09;;;;;;;0.10;0.10;;;;;;;9.82;70.07;103632.63;5053402;28;20025;-81
2021/12/19 03:33:37;;;;;;;0.10;0.10;;;;;;;9.81;70.01;103630.88;5052585;28;20036;-82
2021/12/19 03:36:05;;;;;;;0.17;0.17;;;;;;;9.89;69.67;103621.38;5051704;28;20595;-82
2021/12/19 03:38:38;;;;;;;0.10;0.10;;;;;;;9.88;69.87;103627.50;5051491;28;20068;-82
2021/12/19 03:41:14;;;;;;;0.13;0.13;;;;;;;9.88;70.30;103620.47;5052570;28;20033;-82
2021/12/19 03:43:42;;;;;;;0.10;0.10;;;;;;;9.87;70.29;103625.75;5051915;28;20088;-82
2021/12/19 03:46:09;;;;;;;0.10;0.10;;;;;;;9.91;69.90;103624.97;5051211;28;20017;-83
2021/12/19 03:48:35;;;;;;;0.10;0.10;;;;;;;9.89;70.01;103624.00;5051144;28;20033;-83
2021/12/19 03:51:01;;;;;;;0.10;0.10;;;;;;;9.85;69.90;103622.16;5038707;28;20469;-81
2021/12/19 03:53:28;;;;;;;0.10;0.10;;;;;;;9.85;70.27;103616.84;5040346;28;20130;-82
2021/12/19 03:55:54;;;;;;;0.10;0.10;;;;;;;9.93;70.03;103620.63;5037678;28;20024;-82
2021/12/19 03:58:21;;;;;;;0.10;0.10;;;;;;;9.90;70.25;103624.94;5038486;28;20060;-81
2021/12/19 04:00:49;;;;;;;0.13;0.13;;;;;;;9.88;70.55;103606.31;5038286;28;20083;-81
2021/12/19 04:03:19;;;;;;;0.10;0.10;;;;;;;9.89;70.37;103618.72;5039439;28;20060;-82
2021/12/19 04:05:48;;;;;;;0.10;0.10;;;;;;;9.90;70.61;103596.69;5038735;28;20529;-82
2021/12/19 04:08:15;;;;;;;0.10;0.10;;;;;;;9.92;70.38;103594.97;5038504;28;20052;-82
2021/12/19 04:10:42;;;;;;;0.10;0.10;;;;;;;10.00;70.07;103595.19;5037433;28;20025;-82
2021/12/19 04:13:08;;;;;;;0.10;0.10;;;;;;;9.95;70.31;103587.09;5038444;28;20030;-82
2021/12/19 04:15:35;;;;;;;0.10;0.10;;;;;;;10.01;70.34;103587.28;5039334;28;20025;-82
2021/12/19 04:18:01;;;;;;;0.10;0.10;;;;;;;10.01;70.34;103581.97;5054252;28;20128;-83
2021/12/19 04:20:28;;;;;;;0.10;0.10;;;;;;;10.04;70.12;103587.38;5050985;28;20389;-82
2021/12/19 04:22:54;;;;;;;0.10;0.10;;;;;;;10.10;69.89;103586.63;5045568;28;20064;-83
2021/12/19 04:25:21;;;;;;;0.10;0.10;;;;;;;10.14;69.96;103577.00;5037932;28;20108;-82
2021/12/19 04:27:48;;;;;;;0.10;0.10;;;;;;;10.18;69.97;103573.56;5037244;28;20144;-83
2021/12/19 04:30:24;;;;;;;0.10;0.10;;;;;;;10.22;69.94;103567.50;5037478;28;20147;-80
2021/12/19 04:33:23;;;;;;;0.10;0.10;;;;;;;10.20;69.94;103569.19;5037916;28;20026;-80
2021/12/19 04:35:41;;;;;;;0.10;0.10;;;;;;;10.18;70.06;103563.88;5054568;28;20035;-81
2021/12/19 04:52:57;;;;;;;0.10;0.10;;;;;;;10.23;69.84;103556.06;5038403;28;20108;-83
2021/12/19 04:55:01;;;;;;;0.10;0.10;;;;;;;10.20;70.06;103555.97;5040650;28;20044;-83
2021/12/19 04:57:36;;;;;;;0.10;0.10;;;;;;;10.24;70.05;103551.63;5038126;28;20110;-83
2021/12/19 05:00:09;;;;;;;1.20;1.20;;;;;;;10.23;69.74;103550.75;5053926;28;20025;-83
2021/12/19 05:02:49;;;;;;;0.10;0.10;;;;;;;10.12;70.33;103546.91;5053864;28;20021;-83
2021/12/19 05:16:21;;;;;;;0.10;0.10;;;;;;;10.24;69.68;103563.13;5062172;28;20073;-83
2021/12/19 05:18:49;;;;;;;0.10;0.10;;;;;;;10.26;69.65;103558.75;5053117;28;20503;-82
2021/12/19 05:21:19;;;;;;;0.15;0.15;;;;;;;10.27;69.50;103549.97;5053537;28;20030;-82
2021/12/19 05:26:30;;;;;;;0.10;0.10;;;;;;;10.31;69.85;103553.59;5069903;27;20413;-83
2021/12/19 05:28:57;;;;;;;0.10;0.10;;;;;;;10.32;69.88;103548.31;5053965;28;20037;-83
2021/12/19 05:31:24;;;;;;;0.10;0.10;;;;;;;10.35;69.93;103548.41;5055529;28;20021;-84
2021/12/19 05:33:50;;;;;;;0.10;0.10;;;;;;;10.38;69.76;103546.69;5054620;28;20052;-83
2021/12/19 05:44:15;;;;;;;0.10;0.10;;;;;;;10.39;69.77;103545.84;5052140;28;20094;-83
2021/12/19 05:45:12;;;;;;;0.10;0.10;;;;;;;10.40;69.87;103547.66;5091999;27;20414;-84
2021/12/19 05:47:23;;;;;;;1.17;1.17;;;;;;;10.43;69.89;103548.63;5080362;22;20048;-84
2021/12/19 05:49:49;;;;;;;0.10;0.10;;;;;;;10.40;69.96;103548.53;5069894;28;20021;-81
2021/12/19 05:52:15;;;;;;;0.10;0.10;;;;;;;10.42;69.68;103551.22;5069793;28;20391;-82
2021/12/19 05:54:42;;;;;;;0.10;0.10;;;;;;;10.36;69.79;103542.25;5062140;28;20518;-82
2021/12/19 05:57:09;;;;;;;1.95;0.75;;;;;;;10.26;70.04;103540.22;5069470;28;20025;-82
2021/12/19 05:59:36;;;;;;;0.10;0.10;;;;;;;10.32;69.61;103536.84;5069472;28;20036;-83
2021/12/19 06:02:02;;;;;;;0.17;0.17;;;;;;;10.26;69.89;103534.91;5069828;28;20119;-82
2021/12/19 06:04:28;;;;;;;0.10;0.10;;;;;;;10.31;69.91;103527.97;5069594;28;20036;-83
2021/12/19 06:06:54;;;;;;;0.63;0.63;;;;;;;10.19;69.97;103535.59;5069440;28;20021;-83
2021/12/19 06:09:21;;;;;;;0.10;0.10;;;;;;;10.18;69.81;103536.47;5069191;28;20036;-83
2021/12/19 06:11:47;;;;;;;3.95;1.75;;;;;;;10.14;70.03;103529.31;5058286;28;20033;-83
2021/12/19 06:14:13;;;;;;;0.10;0.10;;;;;;;10.17;69.89;103519.69;5069226;28;20029;-82
2021/12/19 06:16:39;;;;;;;0.10;0.10;;;;;;;10.18;69.82;103531.16;5069472;28;20033;-82
2021/12/19 06:19:05;;;;;;;0.10;0.10;;;;;;;10.12;70.06;103523.06;5069075;28;20111;-82
2021/12/19 06:21:31;;;;;;;0.10;0.10;;;;;;;10.10;70.04;103524.78;5069441;28;20044;-82
2021/12/19 06:23:57;;;;;;;0.10;0.10;;;;;;;10.01;70.11;103523.69;5068938;28;20092;-84
2021/12/19 06:26:24;;;;;;;0.10;0.10;;;;;;;10.08;70.03;103518.56;5067744;28;20381;-82
2021/12/19 06:28:50;;;;;;;0.10;0.10;;;;;;;10.12;69.84;103520.41;5069144;28;20029;-82
2021/12/19 06:31:17;;;;;;;0.17;0.17;;;;;;;10.10;70.10;103519.50;5069406;28;20037;-83
2021/12/19 06:33:43;;;;;;;0.10;0.10;;;;;;;10.11;69.91;103518.66;5069166;28;20029;-82
2021/12/19 06:36:10;;;;;;;0.68;0.68;;;;;;;10.05;70.22;103514.06;5068948;28;20032;-81
2021/12/19 06:38:36;;;;;;;0.10;0.10;;;;;;;10.15;69.87;103509.91;5069128;28;20025;-83
2021/12/19 06:41:02;;;;;;;0.05;0.05;;;;;;;10.17;70.14;103510.84;5068721;28;20039;-82
2021/12/19 06:43:30;;;;;;;0.10;0.10;;;;;;;10.22;69.92;103505.66;5064986;28;20025;-83
2021/12/19 06:45:56;;;;;;;0.10;0.10;;;;;;;10.24;69.86;103499.53;5068764;28;20025;-82
2021/12/19 06:48:24;;;;;;;0.10;0.10;;;;;;;10.29;70.07;103502.28;5068798;28;20043;-83
2021/12/19 06:50:53;;;;;;;0.10;0.10;;;;;;;10.28;70.02;103512.00;5068535;28;20108;-84
2021/12/19 06:53:19;;;;;;;0.10;0.10;;;;;;;10.28;70.00;103511.09;5068801;28;20103;-83
2021/12/19 06:55:45;;;;;;;0.10;0.10;;;;;;;10.30;70.04;103504.97;5055939;28;20021;-83
2021/12/19 06:58:11;;;;;;;0.10;0.10;;;;;;;10.30;70.01;103507.63;5054155;28;20052;-83
2021/12/19 07:00:37;;;;;;;0.68;0.68;;;;;;;10.19;70.17;103502.09;5055272;28;20075;-83
2021/12/19 07:03:04;;;;;;;0.10;0.10;;;;;;;10.19;69.98;103493.22;5054963;28;20048;-83
2021/12/19 07:05:30;;;;;;;0.10;0.10;;;;;;;10.21;69.86;103488.88;5055336;28;20033;-83
2021/12/19 07:07:56;;;;;;;0.10;0.10;;;;;;;10.19;69.83;103493.22;5055217;28;20071;-84
2021/12/19 07:10:22;;;;;;;0.10;0.10;;;;;;;10.21;69.78;103502.13;5055039;28;20112;-83
2021/12/19 07:12:49;;;;;;;0.13;0.13;;;;;;;10.18;69.76;103496.72;5054814;28;20100;-83
2021/12/19 07:17:53;;;;;;;0.10;0.10;;;;;;;10.05;70.08;103498.19;5031234;28;20037;-82
2021/12/19 07:20:19;;;;;;;0.10;0.10;;;;;;;10.06;69.74;103496.44;5036958;28;20056;-82
2021/12/19 07:22:46;;;;;;;0.50;0.50;;;;;;;10.03;69.73;103495.50;5036804;28;20033;-83
2021/12/19 07:25:12;;;;;;;0.10;0.10;;;;;;;10.00;69.70;103487.47;5036634;28;20065;-83
2021/12/19 07:27:38;;;;;;;0.73;0.32;;;;;;;10.04;69.91;103486.72;5036810;28;20120;-82
2021/12/19 07:30:06;;;;;;;0.20;0.20;;;;;;;10.10;69.81;103485.06;5037314;28;20029;-80
2021/12/19 07:32:41;;;;;;;0.10;0.10;;;;;;;10.14;69.81;103486.91;5036066;28;20029;-79
2021/12/19 07:35:09;;;;;;;0.10;0.10;;;;;;;10.15;69.66;103486.94;5035812;28;20381;-81
2021/12/19 07:37:37;;;;;;;0.10;0.10;;;;;;;10.19;69.64;103480.88;5036178;28;20026;-83
2021/12/19 07:40:13;;;;;;;0.20;0.20;;;;;;;10.18;69.89;103483.47;5036564;28;20021;-82
2021/12/19 07:42:41;;;;;;;0.10;0.10;;;;;;;10.20;69.87;103490.63;5036372;28;20388;-82
2021/12/19 07:45:07;;;;;;;0.10;0.10;;;;;;;10.21;69.72;103486.22;5036423;28;20040;-80
2021/12/19 07:47:34;;;;;;;0.10;0.10;;;;;;;10.17;69.66;103487.88;5036039;28;20033;-80
2021/12/19 07:50:00;;;;;;;0.20;0.20;;;;;;;10.19;69.74;103479.97;5035661;28;20057;-82
2021/12/19 07:52:26;;;;;;;0.10;0.10;;;;;;;10.21;69.38;103480.91;5035747;28;20413;-82
2021/12/19 07:54:52;;;;;;;0.10;0.10;;;;;;;10.22;69.85;103480.06;5036111;28;20065;-80
2021/12/19 07:57:18;;;;;;;0.10;0.10;;;;;;;10.17;69.66;103476.41;5035935;28;20431;-83
2021/12/19 07:59:44;;;;;;;0.10;0.10;;;;;;;10.19;69.85;103475.59;5036190;28;20109;-83
2021/12/19 08:02:11;;;;;;;0.10;0.10;;;;;;;10.18;69.83;103467.56;5035327;28;20025;-82
2021/12/19 08:04:38;;;;;;;0.10;0.10;;;;;;;10.16;70.03;103480.78;5035517;28;20096;-82
2021/12/19 08:07:04;;;;;;;0.10;0.10;;;;;;;10.15;70.22;103478.13;5022900;28;20033;-83
2021/12/19 08:09:47;;;;;;;0.10;0.10;;;;;;;10.24;70.12;103469.50;5023813;28;20552;-81
2021/12/19 08:12:13;;;;;;;0.20;0.20;;;;;;;10.23;70.19;103471.25;5015965;28;20025;-82
2021/12/19 08:14:39;;;;;;;0.10;0.10;;;;;;;10.22;70.13;103469.47;5016627;28;20083;-81
2021/12/19 08:17:05;;;;;;;0.10;0.10;;;;;;;10.27;70.25;103466.91;5019542;28;20040;-79
2021/12/19 08:19:31;;;;;;;0.10;0.10;;;;;;;10.38;69.73;103469.84;5025258;28;20037;-84
2021/12/19 08:21:57;;;;;;;0.10;0.10;;;;;;;10.38;69.91;103465.44;5017379;28;20033;-84
2021/12/19 08:24:24;;;;;;;0.10;0.10;;;;;;;10.41;69.91;103459.31;5015360;28;20049;-82
2021/12/19 08:26:50;;;;;;;0.10;0.10;;;;;;;10.41;69.75;103460.22;5035068;28;20029;-84
2021/12/19 08:29:16;;;;;;;0.20;0.20;;;;;;;10.46;69.84;103460.31;5020370;28;20476;-83
2021/12/19 08:31:43;;;;;;;0.10;0.10;;;;;;;10.41;69.54;103469.94;5013681;28;20092;-84
2021/12/19 08:34:09;;;;;;;0.10;0.10;;;;;;;10.43;70.00;103457.59;5018709;28;20030;-82
2021/12/19 08:36:36;;;;;;;0.10;0.10;;;;;;;10.42;69.66;103464.66;5015539;28;20048;-80
2021/12/19 08:39:04;;;;;;;0.10;0.10;;;;;;;10.48;69.88;103466.53;5017095;28;20455;-83
2021/12/19 08:41:31;;;;;;;0.10;0.10;;;;;;;10.47;69.84;103459.47;5015313;28;20505;-83
2021/12/19 08:43:57;;;;;;;0.10;0.10;;;;;;;10.51;69.77;103456.00;5016668;28;20060;-82
2021/12/19 08:46:23;;;;;;;0.10;0.10;;;;;;;10.51;69.92;103456.00;5020837;28;20037;-83
2021/12/19 08:48:50;;;;;;;0.10;0.10;;;;;;;10.52;69.67;103447.22;5022591;28;20048;-81
2021/12/19 08:51:16;;;;;;;0.10;0.10;;;;;;;10.53;69.53;103454.31;5025490;28;20033;-83
2021/12/19 08:53:42;;;;;;;0.10;0.10;;;;;;;10.56;69.60;103451.69;5033036;28;20477;-84
2021/12/19 08:56:08;;;;;;;0.10;0.10;;;;;;;10.54;69.51;103448.13;5031346;28;20035;-86
2021/12/19 08:58:35;;;;;;;0.38;0.38;;;;;;;10.62;69.79;103451.84;5031814;28;20049;-79
2021/12/19 09:01:02;;;;;;;0.10;0.10;;;;;;;10.55;69.50;103452.56;5030975;28;20025;-83
2021/12/19 09:03:31;;;;;;;0.10;0.10;;;;;;;10.60;69.42;103445.59;5033331;28;20029;-83
2021/12/19 09:05:58;;;;;;;0.10;0.10;;;;;;;10.58;69.99;103444.69;5030881;28;20038;-83
2021/12/19 09:08:24;;;;;;;0.10;0.10;;;;;;;10.57;69.51;103445.53;5030483;28;20037;-83
2021/12/19 09:10:52;;;;;;;0.10;0.10;;;;;;;10.59;70.07;103451.78;5027811;28;20144;-83
2021/12/19 09:13:18;;;;;;;0.17;0.17;;;;;;;10.62;69.61;103449.19;5024247;28;20041;-79
2021/12/19 09:15:46;;;;;;;0.10;0.10;;;;;;;10.58;69.69;103442.03;5022108;28;20026;-83
2021/12/19 09:18:12;;;;;;;0.50;0.50;;;;;;;10.57;69.61;103455.28;5024514;28;20462;-82
2021/12/19 09:20:39;;;;;;;0.10;0.10;;;;;;;10.60;69.40;103442.94;5023422;28;20026;-83
2021/12/19 09:23:05;;;;;;;0.10;0.10;;;;;;;10.62;69.61;103443.88;5023723;28;20048;-83
2021/12/19 09:25:32;;;;;;;0.10;0.10;;;;;;;10.64;69.50;103447.47;5023763;28;20033;-82
2021/12/19 09:27:58;;;;;;;0.10;0.10;;;;;;;10.63;69.54;103444.75;5023767;28;20033;-83
2021/12/19 09:30:25;;;;;;;0.10;0.10;;;;;;;10.53;69.61;103438.41;5027717;28;20044;-84
2021/12/19 09:32:51;;;;;;;0.08;0.08;;;;;;;10.62;69.68;103437.69;5025141;28;20026;-84
2021/12/19 09:35:18;;;;;;;0.10;0.10;;;;;;;10.60;69.53;103442.94;5028988;28;20022;-84
2021/12/19 09:37:44;;;;;;;0.10;0.10;;;;;;;10.59;69.26;103438.53;5025765;28;20117;-83
2021/12/19 09:40:16;;;;;;;0.10;0.10;;;;;;;10.60;69.44;103440.28;5029773;28;20028;-83
2021/12/19 09:42:47;;;;;;;0.10;0.10;;;;;;;10.68;69.35;103438.72;5017413;28;20030;-83
2021/12/19 09:45:14;;;;;;;0.20;0.20;;;;;;;10.66;69.08;103443.09;5020844;28;20175;-83
2021/12/19 09:47:41;;;;;;;0.10;0.10;;;;;;;10.71;69.27;103444.97;5014095;28;20022;-84
2021/12/19 09:50:08;;;;;;;0.10;0.10;;;;;;;10.72;69.60;103434.38;5016534;28;20400;-82
2021/12/19 09:52:35;;;;;;;0.10;0.10;;;;;;;10.81;69.64;103439.84;5017463;28;20038;-82
2021/12/19 09:55:03;;;;;;;0.10;0.10;;;;;;;10.87;69.58;103438.22;5019585;28;20025;-82
2021/12/19 09:57:30;;;;;;;0.00;0.00;;;;;;;10.93;69.67;103439.22;5013170;28;20393;-82
2021/12/19 09:59:56;;;;;;;0.20;0.20;;;;;;;10.87;69.02;103440.88;5014492;28;20033;-82
2021/12/19 10:02:23;;;;;;;0.10;0.10;;;;;;;10.99;69.25;103434.03;5017784;28;20492;-81
2021/12/19 10:04:50;;;;;;;0.10;0.10;;;;;;;10.95;69.20;103439.25;5017000;28;20033;-81
2021/12/19 10:07:20;;;;;;;0.20;0.20;;;;;;;10.92;69.00;103442.75;5016000;28;20113;-82
2021/12/19 10:10:12;;;;;;;0.10;0.10;;;;;;;10.99;68.70;103434.03;5015874;28;20037;-82
2021/12/19 10:18:08;;;;;;;0.10;0.10;;;;;;;10.90;68.21;103417.94;5070566;27;21026;-81
2021/12/19 10:23:26;;;;;;;0.10;0.10;;;;;;;10.89;68.38;103413.50;5072538;28;20488;-81
2021/12/19 10:29:00;;;;;;;0.00;0.00;;;;;;;11.02;68.32;103411.97;5120817;27;20995;-82
2021/12/19 10:31:29;;;;;;;0.10;0.10;;;;;;;10.96;68.58;103410.09;5111423;28;20039;-83
2021/12/19 10:33:56;;;;;;;0.10;0.10;;;;;;;11.02;68.67;103406.69;5110641;28;20111;-82
2021/12/19 10:36:22;;;;;;;0.10;0.10;;;;;;;10.90;68.36;103404.66;5113171;28;20030;-82
2021/12/19 10:38:51;;;;;;;0.10;0.10;;;;;;;10.96;69.11;103407.44;5112674;27;20027;-82
2021/12/19 10:41:33;;;;;;;0.10;0.10;;;;;;;11.05;68.62;103409.38;5110317;28;20542;-82
2021/12/19 10:44:05;;;;;;;0.13;0.13;;;;;;;11.00;68.82;103404.00;5114146;27;20111;-84
2021/12/19 10:49:32;;;;;;;0.10;0.10;;;;;;;11.09;68.05;103383.81;5069564;27;20495;-83
2021/12/19 10:52:01;;;;;;;0.10;0.10;;;;;;;11.05;68.48;103385.50;5060617;28;20490;-83
2021/12/19 10:54:29;;;;;;;0.10;0.10;;;;;;;10.98;68.81;103384.50;5051705;28;20079;-83
2021/12/19 10:57:12;;;;;;;0.20;0.20;;;;;;;11.13;68.10;103377.72;5041217;28;20029;-83
2021/12/19 10:59:43;;;;;;;0.10;0.10;;;;;;;11.06;68.73;103376.69;5031354;28;20026;-82
2021/12/19 11:02:10;;;;;;;0.10;0.10;;;;;;;11.04;68.63;103372.22;5035058;28;20026;-83
2021/12/19 11:04:36;;;;;;;0.10;0.10;;;;;;;11.08;68.83;103374.97;5046281;28;20116;-84
2021/12/19 11:07:03;;;;;;;0.10;0.10;;;;;;;11.11;68.83;103363.50;5031540;28;20030;-83
2021/12/19 11:09:34;;;;;;;0.20;0.20;;;;;;;11.10;68.57;103357.31;5032159;28;20029;-83
2021/12/19 11:14:45;;;;;;;0.10;0.10;;;;;;;11.15;68.56;103354.72;5059913;28;20468;-83
2021/12/19 11:17:15;;;;;;;0.10;0.10;;;;;;;11.12;68.66;103355.56;5049041;28;20051;-83
2021/12/19 11:19:43;;;;;;;0.10;0.10;;;;;;;11.14;68.34;103347.63;5050028;28;20029;-83
2021/12/19 11:22:10;;;;;;;0.15;0.15;;;;;;;11.08;68.59;103343.13;5050162;28;20057;-83
2021/12/19 11:24:37;;;;;;;0.85;0.77;;;;;;;11.08;68.49;103339.56;5050442;28;20045;-82
2021/12/19 11:27:06;;;;;;;0.10;0.10;;;;;;;11.16;68.32;103332.63;5049917;28;20033;-83
2021/12/19 11:29:32;;;;;;;0.30;0.30;;;;;;;11.11;68.21;103326.38;5049670;28;20036;-82
2021/12/19 11:32:03;;;;;;;0.10;0.10;;;;;;;11.10;68.09;103321.91;5050329;28;20035;-82
2021/12/19 11:37:14;;;;;;;0.10;0.10;;;;;;;11.06;67.58;103318.31;5064488;28;20969;-83
2021/12/19 11:39:46;;;;;;;0.10;0.10;;;;;;;11.06;67.67;103322.75;5058065;28;20116;-83
2021/12/19 11:42:14;;;;;;;;;;;;;;;11.16;66.96;103314.06;5055012;28;20025;-83
2021/12/19 11:44:54;;;;;;;0.10;0.10;;;;;;;11.03;67.47;103312.06;5050263;28;19917;-83
2021/12/19 11:47:56;;;;;;;0.10;0.10;;;;;;;11.13;66.84;103309.59;5072172;22;20474;-83
2021/12/19 11:55:54;;;;;;;0.10;0.10;;;;;;;11.13;67.00;103306.06;5073330;27;20481;-83
2021/12/19 11:58:31;;;;;;;0.20;0.20;;;;;;;11.17;66.85;103300.81;5045345;28;20036;-83
2021/12/19 12:01:01;;;;;;;0.10;0.10;;;;;;;11.16;67.34;103292.84;5049243;28;20120;-83
2021/12/19 12:03:52;;;;;;;0.10;0.10;;;;;;;11.15;66.75;103301.66;5049719;28;20025;-84
2021/12/19 12:15:03;;;;;;;0.10;0.10;;;;;;;11.21;66.15;103285.84;5111774;27;20396;-83
2021/12/19 12:17:36;;;;;;;0.10;0.10;;;;;;;11.09;65.79;103280.31;5112622;28;20032;-83
2021/12/19 12:20:14;;;;;;;0.20;0.20;;;;;;;11.15;66.57;103270.72;5109265;28;20023;-83
2021/12/19 12:22:52;;;;;;;0.10;0.10;;;;;;;11.11;66.12;103270.66;5132165;28;20031;-83
2021/12/19 12:25:32;;;;;;;0.10;0.10;;;;;;;10.99;66.23;103268.66;5120676;27;20059;-84
2021/12/19 12:28:04;;;;;;;0.13;0.13;;;;;;;11.03;65.91;103262.56;5091554;28;20393;-84
2021/12/19 12:33:14;;;;;;;0.10;0.10;;;;;;;10.93;65.49;103264.16;5089956;27;20412;-84
2021/12/19 12:35:43;;;;;;;0.10;0.10;;;;;;;10.87;65.75;103271.13;5069258;28;20033;-84
2021/12/19 12:38:12;;;;;;;0.15;0.15;;;;;;;10.89;66.20;103264.97;5051721;28;20072;-85
2021/12/19 12:40:53;;;;;;;0.10;0.10;;;;;;;10.85;66.09;103260.47;5050742;28;20037;-85
2021/12/19 12:43:22;;;;;;;0.10;0.10;;;;;;;10.87;66.32;103264.06;5050947;28;20040;-85
2021/12/19 12:45:54;;;;;;;0.10;0.10;;;;;;;10.91;66.12;103255.28;5051060;28;20037;-84
2021/12/19 12:48:33;;;;;;;0.10;0.10;;;;;;;10.85;65.84;103263.13;5044378;28;20478;-84
2021/12/19 12:51:02;;;;;;;0.30;0.30;;;;;;;10.79;65.84;103263.00;5050902;28;20116;-85
2021/12/19 12:53:31;;;;;;;0.10;0.10;;;;;;;10.68;65.88;103263.72;5050988;28;20059;-85
2021/12/19 12:56:06;;;;;;;0.10;0.10;;;;;;;10.76;65.99;103260.31;5050403;28;20017;-85
2021/12/19 12:58:38;;;;;;;0.10;0.10;;;;;;;10.80;65.48;103256.84;5051164;28;20033;-85
2021/12/19 13:04:15;;;;;;;0.10;0.10;;;;;;;10.79;65.58;103250.66;5086269;27;20427;-84
2021/12/19 13:12:20;;;;;;;0.25;0.25;;;;;;;10.89;65.80;103227.84;5092091;27;20812;-84
2021/12/19 13:15:09;;;;;;;0.03;0.03;;;;;;;10.88;65.27;103228.72;5072115;28;20025;-83
2021/12/19 13:17:38;;;;;;;0.10;0.10;;;;;;;10.88;65.77;103227.81;5052434;28;20033;-84
2021/12/19 13:25:34;;;;;;;0.10;0.10;;;;;;;10.91;65.95;103218.13;5087886;28;20934;-82